createdAt,value
2023-04-13T00:00:20.157Z,3
2023-04-13T00:02:48.657Z,3
2023-04-13T00:04:03.126Z,2
2023-04-13T00:05:16.754Z,4
2023-04-13T00:07:44.966Z,5
2023-04-13T00:08:59.142Z,3
2023-04-13T00:10:13.227Z,5
2023-04-13T00:12:41.456Z,2
2023-04-13T00:13:55.642Z,3
2023-04-13T00:15:09.741Z,5
2023-04-13T00:16:23.998Z,4
2023-04-13T00:18:52.223Z,3
2023-04-13T00:20:06.302Z,4
2023-04-13T00:21:20.470Z,3
2023-04-13T00:23:48.682Z,2
2023-04-13T00:25:02.892Z,5
2023-04-13T00:26:17.070Z,6
2023-04-13T00:28:45.225Z,4
2023-04-13T00:29:59.454Z,3
2023-04-13T00:31:13.636Z,3
2023-04-13T00:33:41.767Z,2
2023-04-13T00:34:55.909Z,4
2023-04-13T00:36:10.054Z,2
2023-04-13T00:37:24.176Z,2
2023-04-13T00:39:52.461Z,3
2023-04-13T00:41:06.559Z,3
2023-04-13T00:42:20.686Z,3
2023-04-13T00:44:49.016Z,4
2023-04-13T00:46:03.215Z,2
2023-04-13T00:47:17.548Z,4
2023-04-13T00:49:45.529Z,2
2023-04-13T00:50:59.615Z,3
2023-04-13T00:52:13.836Z,2
2023-04-13T00:54:42.025Z,3
2023-04-13T00:55:56.164Z,3
2023-04-13T00:57:10.352Z,3
2023-04-13T00:59:38.649Z,2
2023-04-13T01:00:52.708Z,3
2023-04-13T01:02:06.893Z,4
2023-04-13T01:03:20.974Z,2
2023-04-13T01:05:49.215Z,4
2023-04-13T01:07:03.338Z,2
2023-04-13T01:08:17.697Z,3
2023-04-13T01:10:45.764Z,2
2023-04-13T01:12:00.036Z,2
2023-04-13T01:13:14.072Z,3
2023-04-13T01:15:42.396Z,3
2023-04-13T01:16:56.414Z,4
2023-04-13T01:18:10.947Z,2
2023-04-13T01:20:38.919Z,4
2023-04-13T01:21:53.021Z,3
2023-04-13T01:23:07.178Z,3
2023-04-13T01:24:21.201Z,3
2023-04-13T01:26:49.484Z,2
2023-04-13T01:28:03.597Z,3
2023-04-13T01:29:17.876Z,3
2023-04-13T01:30:31.894Z,4
2023-04-13T01:31:46.082Z,1
2023-04-13T01:33:00.181Z,2
2023-04-13T01:34:14.260Z,4
2023-04-13T01:36:42.830Z,4
2023-04-13T01:37:56.667Z,2
2023-04-13T01:39:10.822Z,2
2023-04-13T01:41:39.116Z,4
2023-04-13T01:42:53.221Z,1
2023-04-13T01:44:07.416Z,1
2023-04-13T01:45:21.480Z,2
2023-04-13T01:47:49.887Z,2
2023-04-13T01:49:03.903Z,3
2023-04-13T01:50:18.129Z,2
2023-04-13T01:52:46.314Z,2
2023-04-13T01:54:00.756Z,2
2023-04-13T01:55:14.557Z,4
2023-04-13T01:57:42.836Z,4
2023-04-13T01:58:56.945Z,2
2023-04-13T02:00:11.091Z,4
2023-04-13T02:02:39.487Z,2
2023-04-13T02:03:53.653Z,3
2023-04-13T02:05:07.657Z,1
2023-04-13T02:06:21.711Z,3
2023-04-13T02:08:52.400Z,2
2023-04-13T02:10:04.169Z,2
2023-04-13T02:11:18.262Z,5
2023-04-13T02:13:46.521Z,3
2023-04-13T02:15:00.682Z,3
2023-04-13T02:16:14.808Z,2
2023-04-13T02:18:43.160Z,2
2023-04-13T02:19:57.236Z,3
2023-04-13T02:21:11.482Z,4
2023-04-13T02:23:39.597Z,3
2023-04-13T02:24:53.759Z,2
2023-04-13T02:26:07.882Z,3
2023-04-13T02:27:21.999Z,3
2023-04-13T02:29:50.239Z,4
2023-04-13T02:31:04.536Z,4
2023-04-13T02:32:18.561Z,2
2023-04-13T02:34:46.873Z,4
2023-04-13T02:36:00.872Z,3
2023-04-13T02:37:15.051Z,3
2023-04-13T02:39:43.423Z,3
2023-04-13T02:40:57.467Z,3
2023-04-13T02:42:11.552Z,2
2023-04-13T02:44:39.864Z,2
2023-04-13T02:45:54.171Z,3
2023-04-13T02:47:08.120Z,1
2023-04-13T02:48:22.240Z,3
2023-04-13T02:50:50.489Z,2
2023-04-13T02:52:04.653Z,2
2023-04-13T02:53:18.762Z,2
2023-04-13T02:55:47.091Z,3
2023-04-13T02:57:01.170Z,2
2023-04-13T02:58:15.312Z,4
2023-04-13T03:00:43.574Z,2
2023-04-13T03:01:57.810Z,5
2023-04-13T03:03:11.922Z,3
2023-04-13T03:05:40.169Z,2
2023-04-13T03:06:54.353Z,2
2023-04-13T03:08:08.452Z,3
2023-04-13T03:09:22.522Z,3
2023-04-13T03:11:50.736Z,3
2023-04-13T03:13:04.936Z,3
2023-04-13T03:14:19.035Z,4
2023-04-13T03:16:47.364Z,3
2023-04-13T03:18:01.451Z,2
2023-04-13T03:19:15.596Z,3
2023-04-13T03:21:43.835Z,2
2023-04-13T03:22:58.005Z,4
2023-04-13T03:24:12.108Z,4
2023-04-13T03:26:40.336Z,5
2023-04-13T03:27:54.550Z,3
2023-04-13T03:29:08.644Z,3
2023-04-13T03:30:22.777Z,4
2023-04-13T03:32:51.060Z,6
2023-04-13T03:34:05.186Z,5
2023-04-13T03:35:19.284Z,2
2023-04-13T03:37:47.663Z,6
2023-04-13T03:39:01.730Z,3
2023-04-13T03:40:15.825Z,2
2023-04-13T03:42:44.107Z,6
2023-04-13T03:43:58.498Z,6
2023-04-13T03:45:12.367Z,4
2023-04-13T03:47:40.685Z,2
2023-04-13T03:48:54.794Z,4
2023-04-13T03:50:08.945Z,3
2023-04-13T03:51:23.035Z,6
2023-04-13T03:53:51.290Z,4
2023-04-13T03:55:05.490Z,3
2023-04-13T03:56:19.546Z,5
2023-04-13T03:58:47.839Z,5
2023-04-13T04:00:01.942Z,3
2023-04-13T04:01:16.487Z,4
2023-04-13T04:03:44.490Z,5
2023-04-13T04:04:58.607Z,5
2023-04-13T04:06:12.605Z,4
2023-04-13T04:08:40.885Z,5
2023-04-13T04:09:55.036Z,3
2023-04-13T04:11:09.253Z,8
2023-04-13T04:12:23.272Z,7
2023-04-13T04:14:51.533Z,3
2023-04-13T04:16:05.699Z,5
2023-04-13T04:17:19.815Z,5
2023-04-13T04:19:48.140Z,7
2023-04-13T04:21:02.228Z,5
2023-04-13T04:22:16.360Z,3
2023-04-13T04:24:44.603Z,3
2023-04-13T04:25:59.136Z,3
2023-04-13T04:27:12.892Z,3
2023-04-13T04:29:41.215Z,5
2023-04-13T04:30:55.276Z,5
2023-04-13T04:32:09.524Z,6
2023-04-13T04:33:23.710Z,3
2023-04-13T04:35:51.858Z,4
2023-04-13T04:37:17.766Z,6
2023-04-13T04:38:20.068Z,5
2023-04-13T04:40:48.369Z,4
2023-04-13T04:42:02.485Z,6
2023-04-13T04:43:16.643Z,3
2023-04-13T04:45:44.932Z,5
2023-04-13T04:46:59.034Z,4
2023-04-13T04:48:13.146Z,3
2023-04-13T04:50:41.415Z,5
2023-04-13T04:51:55.541Z,3
2023-04-13T04:53:09.692Z,4
2023-04-13T04:54:23.900Z,3
2023-04-13T04:56:52.055Z,4
2023-04-13T04:58:06.218Z,6
2023-04-13T04:59:20.337Z,6
2023-04-13T05:01:48.802Z,3
2023-04-13T05:03:02.807Z,3
2023-04-13T05:04:16.945Z,3
2023-04-13T05:06:45.197Z,2
2023-04-13T05:07:59.331Z,4
2023-04-13T05:09:13.408Z,4
2023-04-13T05:11:41.683Z,3
2023-04-13T05:12:55.828Z,4
2023-04-13T05:14:09.928Z,4
2023-04-13T05:15:24.168Z,6
2023-04-13T05:17:52.390Z,3
2023-04-13T05:19:06.488Z,5
2023-04-13T05:20:20.590Z,4
2023-04-13T05:22:48.913Z,3
2023-04-13T05:24:03.009Z,3
2023-04-13T05:25:17.148Z,4
2023-04-13T05:27:45.420Z,3
2023-04-13T05:28:59.915Z,2
2023-04-13T05:30:13.672Z,3
2023-04-13T05:32:41.976Z,3
2023-04-13T05:33:56.091Z,5
2023-04-13T05:35:10.196Z,5
2023-04-13T05:36:24.425Z,2
2023-04-13T05:38:52.595Z,5
2023-04-13T05:40:06.762Z,3
2023-04-13T05:41:20.850Z,5
2023-04-13T05:43:49.237Z,4
2023-04-13T05:45:03.371Z,3
2023-04-13T05:46:17.443Z,4
2023-04-13T05:48:45.690Z,4
2023-04-13T05:49:59.829Z,3
2023-04-13T05:51:14.128Z,4
2023-04-13T05:53:42.228Z,4
2023-04-13T05:54:56.364Z,4
2023-04-13T05:56:10.469Z,3
2023-04-13T05:58:38.788Z,3
2023-04-13T05:59:52.932Z,4
2023-04-13T06:01:11.089Z,4
2023-04-13T06:02:21.292Z,4
2023-04-13T06:04:49.503Z,5
2023-04-13T06:06:03.601Z,4
2023-04-13T06:07:17.916Z,5
2023-04-13T06:08:31.790Z,4
2023-04-13T06:09:45.976Z,4
2023-04-13T06:11:00.123Z,3
2023-04-13T06:12:14.217Z,2
2023-04-13T06:14:42.558Z,6
2023-04-13T06:15:56.653Z,5
2023-04-13T06:17:10.816Z,4
2023-04-13T06:19:39.118Z,5
2023-04-13T06:20:53.164Z,5
2023-04-13T06:22:07.394Z,5
2023-04-13T06:23:21.386Z,5
2023-04-13T06:25:49.792Z,4
2023-04-13T06:27:03.840Z,4
2023-04-13T06:28:18.133Z,2
2023-04-13T06:30:46.313Z,4
2023-04-13T06:32:00.478Z,5
2023-04-13T06:33:14.479Z,3
2023-04-13T06:35:42.815Z,4
2023-04-13T06:36:56.890Z,3
2023-04-13T06:38:10.987Z,4
2023-04-13T06:39:27.094Z,4
2023-04-13T06:40:39.317Z,4
2023-04-13T06:41:53.399Z,4
2023-04-13T06:43:13.429Z,3
2023-04-13T06:44:21.661Z,4
2023-04-13T06:46:50.072Z,4
2023-04-13T06:48:04.280Z,3
2023-04-13T06:49:18.407Z,2
2023-04-13T06:51:46.470Z,5
2023-04-13T06:53:00.889Z,4
2023-04-13T06:54:14.723Z,2
2023-04-13T06:56:43.096Z,2
2023-04-13T06:57:57.146Z,2
2023-04-13T06:59:11.267Z,3
2023-04-13T07:01:39.610Z,3
2023-04-13T07:02:53.914Z,2
2023-04-13T07:04:08.013Z,2
2023-04-13T07:05:21.954Z,2
2023-04-13T07:07:50.193Z,2
2023-04-13T07:09:04.381Z,2
2023-04-13T07:10:18.475Z,1
2023-04-13T07:12:46.800Z,3
2023-04-13T07:14:00.834Z,2
2023-04-13T07:15:15.025Z,4
2023-04-13T07:17:43.360Z,1
2023-04-13T07:18:57.568Z,2
2023-04-13T07:20:11.497Z,3
2023-04-13T07:22:39.805Z,2
2023-04-13T07:23:54.063Z,2
2023-04-13T07:25:08.163Z,2
2023-04-13T07:26:22.198Z,1
2023-04-13T07:28:50.424Z,2
2023-04-13T07:30:04.641Z,2
2023-04-13T07:31:19.136Z,7
2023-04-13T07:33:47.063Z,3
2023-04-13T07:35:01.166Z,2
2023-04-13T07:36:15.261Z,2
2023-04-13T07:38:43.525Z,2
2023-04-13T07:39:57.661Z,2
2023-04-13T07:41:11.865Z,3
2023-04-13T07:43:40.059Z,2
2023-04-13T07:44:54.282Z,4
2023-04-13T07:46:08.318Z,2
2023-04-13T07:47:22.507Z,3
2023-04-13T07:49:50.811Z,3
2023-04-13T07:51:04.857Z,1
2023-04-13T07:52:18.959Z,3
2023-04-13T07:54:47.254Z,3
2023-04-13T07:56:01.361Z,3
2023-04-13T07:57:15.525Z,2
2023-04-13T07:59:43.806Z,2
2023-04-13T08:00:57.911Z,3
2023-04-13T08:02:12.151Z,2
2023-04-13T08:04:40.430Z,3
2023-04-13T08:05:54.486Z,1
2023-04-13T08:07:08.674Z,4
2023-04-13T08:08:22.714Z,2
2023-04-13T08:10:50.972Z,2
2023-04-13T08:12:05.130Z,2
2023-04-13T08:13:19.227Z,4
2023-04-13T08:15:47.606Z,4
2023-04-13T08:17:03.794Z,4
2023-04-13T08:18:15.768Z,1
2023-04-13T08:20:44.111Z,2
2023-04-13T08:21:58.205Z,2
2023-04-13T08:23:12.643Z,2
2023-04-13T08:25:40.616Z,1
2023-04-13T08:26:54.713Z,2
2023-04-13T08:28:08.849Z,2
2023-04-13T08:29:22.977Z,5
2023-04-13T08:31:51.230Z,2
2023-04-13T08:33:05.483Z,4
2023-04-13T08:34:19.523Z,4
2023-04-13T08:36:47.968Z,2
2023-04-13T08:38:02.028Z,2
2023-04-13T08:39:16.034Z,3
2023-04-13T08:41:44.412Z,3
2023-04-13T08:42:58.780Z,4
2023-04-13T08:44:12.554Z,3
2023-04-13T08:46:40.802Z,5
2023-04-13T08:47:55.012Z,4
2023-04-13T08:49:09.242Z,2
2023-04-13T08:50:23.269Z,2
2023-04-13T08:52:51.529Z,3
2023-04-13T08:54:05.661Z,2
2023-04-13T08:55:19.769Z,5
2023-04-13T08:57:50.580Z,3
2023-04-13T08:59:02.165Z,5
2023-04-13T09:00:16.302Z,4
2023-04-13T09:03:59.087Z,4
2023-04-13T09:05:12.944Z,3
2023-04-13T09:07:41.189Z,5
2023-04-13T09:08:55.253Z,3
2023-04-13T09:10:09.361Z,5
2023-04-13T09:11:23.835Z,4
2023-04-13T09:13:51.901Z,7
2023-04-13T09:15:05.896Z,3
2023-04-13T09:16:20.040Z,5
2023-04-13T09:18:48.319Z,5
2023-04-13T09:20:02.452Z,5
2023-04-13T09:21:16.556Z,5
2023-04-13T09:23:44.820Z,4
2023-04-13T09:24:59.005Z,4
2023-04-13T09:26:13.150Z,6
2023-04-13T09:28:41.350Z,4
2023-04-13T09:29:55.517Z,4
2023-04-13T09:31:09.726Z,4
2023-04-13T09:32:23.856Z,5
2023-04-13T09:34:52.134Z,8
2023-04-13T09:36:06.154Z,4
2023-04-13T09:37:20.353Z,6
2023-04-13T09:39:48.637Z,3
2023-04-13T09:41:02.711Z,5
2023-04-13T09:42:16.854Z,6
2023-04-13T09:44:45.104Z,6
2023-04-13T09:45:59.287Z,7
2023-04-13T09:47:13.396Z,8
2023-04-13T09:49:41.656Z,5
2023-04-13T09:50:55.762Z,6
2023-04-13T09:52:09.969Z,6
2023-04-13T09:53:24.075Z,6
2023-04-13T09:55:52.345Z,5
2023-04-13T09:57:06.459Z,5
2023-04-13T09:58:20.531Z,4
2023-04-13T10:00:48.891Z,7
2023-04-13T10:02:03.125Z,6
2023-04-13T10:03:17.155Z,5
2023-04-13T10:05:58.877Z,5
2023-04-13T10:06:59.611Z,6
2023-04-13T10:08:15.258Z,3
2023-04-13T10:10:41.911Z,5
2023-04-13T10:11:56.040Z,5
2023-04-13T10:13:10.180Z,5
2023-04-13T10:15:38.571Z,6
2023-04-13T10:16:52.764Z,6
2023-04-13T10:18:06.779Z,3
2023-04-13T10:19:20.824Z,2
2023-04-13T10:21:49.184Z,3
2023-04-13T10:23:03.232Z,6
2023-04-13T10:24:17.356Z,5
2023-04-13T10:26:45.633Z,3
2023-04-13T10:27:59.821Z,4
2023-04-13T10:29:13.958Z,3
2023-04-13T10:31:42.228Z,3
2023-04-13T10:32:56.316Z,5
2023-04-13T10:34:10.565Z,4
2023-04-13T10:36:38.793Z,5
2023-04-13T10:37:52.925Z,4
2023-04-13T10:39:06.980Z,7
2023-04-13T10:40:21.079Z,7
2023-04-13T10:42:53.200Z,5
2023-04-13T10:44:03.522Z,5
2023-04-13T10:45:17.666Z,4
2023-04-13T10:46:31.817Z,5
2023-04-13T10:47:45.962Z,6
2023-04-13T10:49:00.357Z,6
2023-04-13T10:50:14.213Z,7
2023-04-13T10:52:42.495Z,10
2023-04-13T10:53:56.568Z,7
2023-04-13T10:55:10.662Z,5
2023-04-13T10:57:39.026Z,6
2023-04-13T10:58:53.183Z,6
2023-04-13T11:00:07.291Z,6
2023-04-13T11:01:21.416Z,6
2023-04-13T11:04:03.160Z,7
2023-04-13T11:05:03.958Z,6
2023-04-13T11:06:18.170Z,6
2023-04-13T11:08:48.445Z,8
2023-04-13T11:10:03.703Z,10
2023-04-13T11:11:15.276Z,6
2023-04-13T11:13:42.789Z,8
2023-04-13T11:14:56.840Z,8
2023-04-13T11:16:11.012Z,10
2023-04-13T11:17:25.268Z,8
2023-04-13T11:18:39.263Z,10
2023-04-13T11:19:53.403Z,10
2023-04-13T11:21:08.741Z,9
2023-04-13T11:22:21.680Z,9
2023-04-13T11:24:50.003Z,12
2023-04-13T11:26:04.096Z,10
2023-04-13T11:27:18.321Z,9
2023-04-13T11:29:46.518Z,10
2023-04-13T11:31:00.630Z,8
2023-04-13T11:32:14.778Z,7
2023-04-13T11:34:43.050Z,9
2023-04-13T11:35:57.097Z,8
2023-04-13T11:37:11.315Z,8
2023-04-13T11:39:39.633Z,8
2023-04-13T11:41:04.740Z,8
2023-04-13T11:42:07.788Z,9
2023-04-13T11:43:21.912Z,8
2023-04-13T11:45:50.222Z,11
2023-04-13T11:47:04.346Z,8
2023-04-13T11:48:18.625Z,10
2023-04-13T11:50:46.725Z,8
2023-04-13T11:52:00.807Z,9
2023-04-13T11:53:14.941Z,10
2023-04-13T11:55:52.810Z,10
2023-04-13T11:56:57.367Z,11
2023-04-13T11:58:11.537Z,13
2023-04-13T12:00:39.833Z,14
2023-04-13T12:02:02.031Z,12
2023-04-13T12:03:28.040Z,12
2023-04-13T12:04:22.263Z,11
2023-04-13T12:06:51.012Z,11
2023-04-13T12:08:05.273Z,9
2023-04-13T12:09:20.888Z,9
2023-04-13T12:11:51.530Z,9
2023-04-13T12:13:15.904Z,10
2023-04-13T12:14:20.175Z,9
2023-04-13T12:18:02.340Z,10
2023-04-13T12:19:14.075Z,11
2023-04-13T12:21:40.278Z,9
2023-04-13T12:23:01.278Z,7
2023-04-13T12:24:08.389Z,13
2023-04-13T12:25:24.202Z,8
2023-04-13T12:27:50.661Z,10
2023-04-13T12:29:04.851Z,8
2023-04-13T12:30:18.927Z,10
2023-04-13T12:32:47.262Z,7
2023-04-13T12:34:01.380Z,6
2023-04-13T12:35:15.470Z,11
2023-04-13T12:37:43.786Z,9
2023-04-13T12:38:58.075Z,8
2023-04-13T12:40:12.026Z,7
2023-04-13T12:42:40.302Z,9
2023-04-13T12:43:54.408Z,7
2023-04-13T12:45:08.527Z,10
2023-04-13T12:46:22.733Z,7
2023-04-13T12:48:50.994Z,7
2023-04-13T12:50:05.089Z,6
2023-04-13T12:51:19.190Z,12
2023-04-13T12:53:47.817Z,6
2023-04-13T12:55:01.593Z,8
2023-04-13T12:56:15.764Z,7
2023-04-13T12:58:44.119Z,10
2023-04-13T12:59:58.137Z,8
2023-04-13T13:01:12.352Z,8
2023-04-13T13:03:40.535Z,8
2023-04-13T13:04:54.760Z,7
2023-04-13T13:06:08.790Z,7
2023-04-13T13:07:22.944Z,9
2023-04-13T13:09:51.231Z,9
2023-04-13T13:11:05.341Z,9
2023-04-13T13:12:19.452Z,10
2023-04-13T13:14:47.724Z,9
2023-04-13T13:16:01.965Z,11
2023-04-13T13:17:16.021Z,9
2023-04-13T13:19:44.262Z,7
2023-04-13T13:20:58.416Z,10
2023-04-13T13:22:12.541Z,8
2023-04-13T13:24:40.770Z,10
2023-04-13T13:26:13.733Z,9
2023-04-13T13:27:37.527Z,6
2023-04-13T13:28:23.231Z,9
2023-04-13T13:30:51.442Z,9
2023-04-13T13:32:05.731Z,9
2023-04-13T13:33:19.752Z,8
2023-04-13T13:35:48.028Z,12
2023-04-13T13:37:02.212Z,12
2023-04-13T13:38:16.302Z,14
2023-04-13T13:40:44.529Z,10
2023-04-13T13:41:58.680Z,8
2023-04-13T13:43:12.855Z,9
2023-04-13T13:45:41.216Z,8
2023-04-13T13:46:55.202Z,11
2023-04-13T13:48:09.416Z,7
2023-04-13T13:49:23.464Z,8
2023-04-13T13:51:51.832Z,10
2023-04-13T13:53:05.860Z,7
2023-04-13T13:54:20.012Z,6
2023-04-13T13:56:48.265Z,9
2023-04-13T13:58:02.418Z,9
2023-04-13T13:59:16.555Z,7
2023-04-13T14:01:44.873Z,7
2023-04-13T14:02:58.989Z,8
2023-04-13T14:04:13.177Z,7
2023-04-13T14:06:41.355Z,7
2023-04-13T14:07:55.466Z,8
2023-04-13T14:09:09.669Z,7
2023-04-13T14:10:23.750Z,8
2023-04-13T14:12:51.991Z,7
2023-04-13T14:14:18.400Z,7
2023-04-13T14:15:20.309Z,6
2023-04-13T14:18:02.137Z,7
2023-04-13T14:19:02.768Z,5
2023-04-13T14:20:16.895Z,7
2023-04-13T14:22:45.055Z,6
2023-04-13T14:23:59.294Z,6
2023-04-13T14:25:13.451Z,7
2023-04-13T14:27:41.576Z,7
2023-04-13T14:28:55.774Z,7
2023-04-13T14:30:09.912Z,11
2023-04-13T14:31:24.299Z,6
2023-04-13T14:33:52.312Z,8
2023-04-13T14:35:06.439Z,7
2023-04-13T14:36:20.524Z,8
2023-04-13T14:38:48.832Z,6
2023-04-13T14:40:02.963Z,8
2023-04-13T14:41:17.125Z,5
2023-04-13T14:43:45.340Z,6
2023-04-13T14:44:59.532Z,9
2023-04-13T14:46:13.627Z,8
2023-04-13T14:48:41.876Z,7
2023-04-13T14:49:55.983Z,7
2023-04-13T14:51:10.166Z,8
2023-04-13T14:53:38.387Z,8
2023-04-13T14:54:52.521Z,8
2023-04-13T14:56:06.674Z,5
2023-04-13T14:57:20.766Z,8
2023-04-13T14:59:49.099Z,9
2023-04-13T15:01:03.252Z,5
2023-04-13T15:02:17.393Z,8
2023-04-13T15:04:45.695Z,6
2023-04-13T15:06:04.016Z,5
2023-04-13T15:07:13.933Z,6
2023-04-13T15:09:42.118Z,8
2023-04-13T15:10:56.268Z,8
2023-04-13T15:12:12.996Z,9
2023-04-13T15:13:24.511Z,7
2023-04-13T15:15:52.787Z,8
2023-04-13T15:17:06.978Z,6
2023-04-13T15:18:21.165Z,5
2023-04-13T15:20:49.343Z,7
2023-04-13T15:22:03.552Z,6
2023-04-13T15:23:19.837Z,7
2023-04-13T15:25:45.851Z,6
2023-04-13T15:27:00.037Z,5
2023-04-13T15:28:14.175Z,9
2023-04-13T15:30:42.392Z,6
2023-04-13T15:31:56.601Z,6
2023-04-13T15:33:10.682Z,7
2023-04-13T15:35:38.987Z,5
2023-04-13T15:36:53.067Z,6
2023-04-13T15:38:07.253Z,7
2023-04-13T15:39:21.364Z,7
2023-04-13T15:41:49.599Z,5
2023-04-13T15:43:03.803Z,7
2023-04-13T15:44:17.959Z,6
2023-04-13T15:46:46.121Z,6
2023-04-13T15:48:00.410Z,5
2023-04-13T15:49:14.403Z,6
2023-04-13T15:51:43.050Z,8
2023-04-13T15:52:56.796Z,6
2023-04-13T15:54:10.904Z,6
2023-04-13T15:55:25.049Z,6
2023-04-13T15:56:39.259Z,7
2023-04-13T15:57:53.344Z,7
2023-04-13T15:59:07.453Z,6
2023-04-13T16:00:21.677Z,6
2023-04-13T16:02:49.989Z,6
2023-04-13T16:04:04.128Z,8
2023-04-13T16:05:18.423Z,8
2023-04-13T16:07:46.457Z,10
2023-04-13T16:09:00.900Z,9
2023-04-13T16:10:14.660Z,7
2023-04-13T16:12:43.051Z,7
2023-04-13T16:13:57.047Z,7
2023-04-13T16:15:11.253Z,6
2023-04-13T16:17:39.663Z,9
2023-04-13T16:18:53.684Z,6
2023-04-13T16:20:07.734Z,6
2023-04-13T16:21:21.840Z,8
2023-04-13T16:23:50.149Z,7
2023-04-13T16:25:04.286Z,6
2023-04-13T16:26:18.614Z,6
2023-04-13T16:28:46.685Z,6
2023-04-13T16:30:00.786Z,6
2023-04-13T16:31:15.018Z,7
2023-04-13T16:33:43.258Z,8
2023-04-13T16:34:57.328Z,5
2023-04-13T16:36:11.442Z,5
2023-04-13T16:38:39.710Z,7
2023-04-13T16:39:53.930Z,4
2023-04-13T16:41:07.978Z,11
2023-04-13T16:42:22.110Z,7
2023-04-13T16:44:50.393Z,10
2023-04-13T16:46:04.533Z,6
2023-04-13T16:47:19.070Z,7
2023-04-13T16:49:46.925Z,7
2023-04-13T16:51:01.024Z,9
2023-04-13T16:52:15.178Z,5
2023-04-13T16:54:43.443Z,7
2023-04-13T16:55:57.577Z,7
2023-04-13T16:57:11.788Z,7
2023-04-13T16:59:40.038Z,7
2023-04-13T17:00:54.167Z,7
2023-04-13T17:02:15.335Z,8
2023-04-13T17:03:22.658Z,6
2023-04-13T17:05:50.625Z,6
2023-04-13T17:07:04.778Z,8
2023-04-13T17:08:19.035Z,6
2023-04-13T17:10:47.271Z,4
2023-04-13T17:12:01.299Z,6
2023-04-13T17:13:15.444Z,5
2023-04-13T17:15:43.855Z,6
2023-04-13T17:16:57.844Z,7
2023-04-13T17:18:12.049Z,7
2023-04-13T17:19:26.101Z,6
2023-04-13T17:20:40.248Z,4
2023-04-13T17:21:54.406Z,6
2023-04-13T17:23:08.498Z,3
2023-04-13T17:24:22.629Z,5
2023-04-13T17:26:50.880Z,6
2023-04-13T17:28:05.033Z,6
2023-04-13T17:29:19.168Z,5
2023-04-13T17:31:47.528Z,5
2023-04-13T17:33:01.594Z,5
2023-04-13T17:34:15.706Z,5
2023-04-13T17:36:44.046Z,6
2023-04-13T17:37:58.459Z,5
2023-04-13T17:39:12.217Z,5
2023-04-13T17:41:40.484Z,6
2023-04-13T17:42:54.637Z,6
2023-04-13T17:44:08.776Z,4
2023-04-13T17:45:22.910Z,7
2023-04-13T17:47:51.172Z,4
2023-04-13T17:49:05.484Z,7
2023-04-13T17:50:19.417Z,6
2023-04-13T17:52:47.747Z,8
2023-04-13T17:54:01.877Z,11
2023-04-13T17:55:15.987Z,11
2023-04-13T17:57:44.245Z,5
2023-04-13T17:58:58.657Z,4
2023-04-13T18:00:12.594Z,7
2023-04-13T18:02:40.862Z,5
2023-04-13T18:03:55.061Z,5
2023-04-13T18:05:09.168Z,4
2023-04-13T18:06:23.169Z,6
2023-04-13T18:08:51.412Z,5
2023-04-13T18:10:05.575Z,5
2023-04-13T18:11:19.694Z,5
2023-04-13T18:13:47.964Z,5
2023-04-13T18:15:02.123Z,5
2023-04-13T18:16:16.323Z,3
2023-04-13T18:18:44.497Z,6
2023-04-13T18:19:58.626Z,5
2023-04-13T18:21:12.803Z,5
2023-04-13T18:23:41.017Z,6
2023-04-13T18:24:55.170Z,5
2023-04-13T18:26:09.315Z,5
2023-04-13T18:27:23.442Z,5
2023-04-13T18:29:51.740Z,5
2023-04-13T18:31:05.915Z,7
2023-04-13T18:32:19.982Z,5
2023-04-13T18:34:48.234Z,7
2023-04-13T18:36:02.530Z,5
2023-04-13T18:37:16.519Z,6
2023-04-13T18:39:44.813Z,4
2023-04-13T18:40:58.910Z,6
2023-04-13T18:42:13.075Z,5
2023-04-13T18:44:41.284Z,5
2023-04-13T18:45:55.535Z,6
2023-04-13T18:47:09.587Z,7
2023-04-13T18:48:23.688Z,5
2023-04-13T18:50:52.006Z,9
2023-04-13T18:52:06.097Z,8
2023-04-13T18:53:20.235Z,8
2023-04-13T18:55:48.591Z,7
2023-04-13T18:57:02.628Z,8
2023-04-13T18:58:16.824Z,5
2023-04-13T19:00:45.097Z,9
2023-04-13T19:01:59.346Z,6
2023-04-13T19:03:13.685Z,7
2023-04-13T19:05:41.544Z,6
2023-04-13T19:06:55.695Z,10
2023-04-13T19:08:10.016Z,8
2023-04-13T19:09:23.978Z,4
2023-04-13T19:11:52.256Z,5
2023-04-13T19:13:06.368Z,7
2023-04-13T19:14:20.479Z,6
2023-04-13T19:16:48.825Z,7
2023-04-13T19:18:03.080Z,4
2023-04-13T19:19:17.035Z,6
2023-04-13T19:21:45.292Z,5
2023-04-13T19:22:59.423Z,5
2023-04-13T19:24:13.619Z,5
2023-04-13T19:26:41.833Z,5
2023-04-13T19:27:56.009Z,8
2023-04-13T19:29:12.210Z,5
2023-04-13T19:30:24.238Z,6
2023-04-13T19:32:52.703Z,10
2023-04-13T19:34:06.634Z,8
2023-04-13T19:35:20.793Z,6
2023-04-13T19:37:49.144Z,7
2023-04-13T19:39:03.187Z,7
2023-04-13T19:40:17.315Z,6
2023-04-13T19:42:45.576Z,9
2023-04-13T19:43:59.816Z,6
2023-04-13T19:45:13.878Z,6
2023-04-13T19:47:42.241Z,10
2023-04-13T19:48:56.224Z,7
2023-04-13T19:50:10.341Z,9
2023-04-13T19:52:38.636Z,6
2023-04-13T19:53:52.801Z,6
2023-04-13T19:55:06.969Z,8
2023-04-13T19:56:20.997Z,7
2023-04-13T19:58:49.393Z,5
2023-04-13T20:00:03.493Z,6
2023-04-13T20:01:17.657Z,6
2023-04-13T20:03:46.012Z,7
2023-04-13T20:05:00.105Z,6
2023-04-13T20:06:14.104Z,5
2023-04-13T20:08:42.372Z,4
2023-04-13T20:09:56.474Z,7
2023-04-13T20:11:10.601Z,5
2023-04-13T20:13:38.894Z,6
2023-04-13T20:14:53.040Z,5
2023-04-13T20:16:07.278Z,8
2023-04-13T20:17:21.405Z,5
2023-04-13T20:19:49.595Z,5
2023-04-13T20:21:03.778Z,6
2023-04-13T20:22:17.891Z,7
2023-04-13T20:24:46.071Z,6
2023-04-13T20:26:00.283Z,5
2023-04-13T20:27:14.343Z,6
2023-04-13T20:29:42.624Z,7
2023-04-13T20:30:56.777Z,6
2023-04-13T20:32:10.858Z,7
2023-04-13T20:34:39.253Z,5
2023-04-13T20:35:53.279Z,7
2023-04-13T20:37:07.414Z,7
2023-04-13T20:38:21.506Z,5
2023-04-13T20:40:49.854Z,6
2023-04-13T20:42:03.947Z,4
2023-04-13T20:43:18.116Z,4
2023-04-13T20:45:46.409Z,5
2023-04-13T20:47:00.532Z,4
2023-04-13T20:50:42.951Z,4
2023-04-13T20:51:57.006Z,4
2023-04-13T20:53:11.240Z,4
2023-04-13T20:55:39.416Z,4
2023-04-13T20:56:53.546Z,6
2023-04-13T20:58:07.686Z,4
2023-04-13T20:59:21.796Z,6
2023-04-13T21:01:50.177Z,4
2023-04-13T21:03:04.328Z,4
2023-04-13T21:04:18.455Z,3
2023-04-13T21:06:46.640Z,4
2023-04-13T21:08:00.741Z,4
2023-04-13T21:09:14.876Z,5
2023-04-13T21:11:43.194Z,4
2023-04-13T21:12:57.274Z,3
2023-04-13T21:14:11.451Z,5
2023-04-13T21:16:39.838Z,6
2023-04-13T21:17:53.980Z,8
2023-04-13T21:19:08.021Z,4
2023-04-13T21:20:22.078Z,4
2023-04-13T21:22:50.298Z,3
2023-04-13T21:24:04.461Z,4
2023-04-13T21:25:18.748Z,8
2023-04-13T21:27:46.858Z,5
2023-04-13T21:29:00.964Z,8
2023-04-13T21:30:15.167Z,4
2023-04-13T21:32:43.482Z,4
2023-04-13T21:33:57.656Z,3
2023-04-13T21:35:11.694Z,4
2023-04-13T21:37:40.038Z,5
2023-04-13T21:38:54.049Z,5
2023-04-13T21:40:08.265Z,6
2023-04-13T21:41:22.386Z,5
2023-04-13T21:43:50.638Z,8
2023-04-13T21:45:04.738Z,4
2023-04-13T21:46:19.036Z,5
2023-04-13T21:48:47.211Z,6
2023-04-13T21:50:01.391Z,8
2023-04-13T21:51:15.386Z,6
2023-04-13T21:53:43.652Z,6
2023-04-13T21:54:57.802Z,5
2023-04-13T21:56:11.923Z,4
2023-04-13T21:57:26.076Z,4
2023-04-13T21:58:40.257Z,4
2023-04-13T21:59:54.330Z,3
2023-04-13T22:01:08.523Z,6
2023-04-13T22:02:22.668Z,5
2023-04-13T22:04:50.838Z,4
2023-04-13T22:06:05.005Z,2
2023-04-13T22:07:25.871Z,4
2023-04-13T22:09:47.489Z,3
2023-04-13T22:11:01.740Z,8
2023-04-13T22:12:15.651Z,3
2023-04-13T22:14:43.949Z,3
2023-04-13T22:15:58.145Z,5
2023-04-13T22:17:14.450Z,3
2023-04-13T22:19:48.668Z,4
2023-04-13T22:21:02.769Z,3
2023-04-13T22:22:16.930Z,3
2023-04-13T22:24:45.211Z,5
2023-04-13T22:25:59.345Z,4
2023-04-13T22:27:13.466Z,2
2023-04-13T22:29:41.695Z,3
2023-04-13T22:30:55.873Z,4
2023-04-13T22:32:10.024Z,3
2023-04-13T22:33:24.105Z,4
2023-04-13T22:35:52.435Z,4
2023-04-13T22:37:06.502Z,4
2023-04-13T22:38:20.668Z,3
2023-04-13T22:40:49.004Z,5
2023-04-13T22:42:03.136Z,4
2023-04-13T22:43:17.244Z,4
2023-04-13T22:45:45.466Z,5
2023-04-13T22:46:59.718Z,5
2023-04-13T22:48:13.700Z,5
2023-04-13T22:50:41.992Z,4
2023-04-13T22:51:56.154Z,5
2023-04-13T22:53:10.209Z,5
2023-04-13T22:54:24.378Z,3
2023-04-13T22:56:52.672Z,3
2023-04-13T22:58:06.753Z,4
2023-04-13T22:59:20.885Z,4
2023-04-13T23:01:49.345Z,5
2023-04-13T23:03:03.552Z,4
2023-04-13T23:04:17.550Z,3
2023-04-13T23:06:45.697Z,4
2023-04-13T23:07:59.841Z,4
2023-04-13T23:09:13.977Z,5
2023-04-13T23:11:42.318Z,5
2023-04-13T23:12:56.364Z,7
2023-04-13T23:14:10.467Z,5
2023-04-13T23:16:38.837Z,4
2023-04-13T23:17:53.067Z,5
2023-04-13T23:19:07.047Z,4
2023-04-13T23:20:21.171Z,4
2023-04-13T23:22:49.496Z,5
2023-04-13T23:24:03.584Z,3
2023-04-13T23:25:17.760Z,4
2023-04-13T23:26:31.865Z,3
2023-04-13T23:27:45.957Z,4
2023-04-13T23:29:00.460Z,3
2023-04-13T23:30:14.249Z,3
2023-04-13T23:32:42.561Z,5
2023-04-13T23:33:56.632Z,4
2023-04-13T23:35:10.772Z,4
2023-04-13T23:37:39.103Z,5
2023-04-13T23:38:53.248Z,4
2023-04-13T23:40:07.292Z,3
2023-04-13T23:41:21.415Z,6